Time;durP1;ratioP1;P1;durP2;ratioP2;P2;SDS_P1;SDS_P2;PMS_P1;PMS_P2;Temp;Humidity;BMP_temperature;BMP_pressure;BME280_temperature;BME280_humidity;BME280_pressure;Samples;Min_cycle;Max_cycle;Signal;HPM_P1;HPM_P2
2022/03/04 00:01:21;;;;;;;3.35;3.05;;;1.90;99.90;;;;;;626285;229;26761;-66
2022/03/04 00:03:49;;;;;;;2.78;2.58;;;1.70;99.90;;;;;;626263;229;26619;-66
2022/03/04 00:06:16;;;;;;;3.42;2.78;;;1.90;99.90;;;;;;626601;227;27036;-66
2022/03/04 00:08:44;;;;;;;3.00;2.67;;;2.30;99.90;;;;;;627914;228;26492;-66
2022/03/04 00:11:12;;;;;;;3.17;2.45;;;1.90;99.90;;;;;;627392;228;26596;-66
2022/03/04 00:13:40;;;;;;;2.62;2.42;;;1.90;99.90;;;;;;627201;229;26781;-66
2022/03/04 00:16:07;;;;;;;3.17;2.87;;;2.00;99.90;;;;;;627080;229;26573;-66
2022/03/04 00:18:34;;;;;;;3.37;2.78;;;1.90;99.90;;;;;;626918;229;26582;-66
2022/03/04 00:21:01;;;;;;;2.70;2.58;;;2.00;99.90;;;;;;626880;229;26816;-66
2022/03/04 00:23:28;;;;;;;2.60;2.40;;;2.10;99.90;;;;;;626781;229;26611;-66
2022/03/04 00:25:55;;;;;;;2.47;2.28;;;2.10;99.90;;;;;;623872;230;26810;-66
2022/03/04 00:28:23;;;;;;;2.67;2.47;;;2.00;99.50;;;;;;623961;230;26539;-66
2022/03/04 00:30:51;;;;;;;3.45;2.75;;;2.20;99.70;;;;;;626130;226;26540;-64
2022/03/04 00:33:19;;;;;;;2.53;2.33;;;2.20;99.90;;;;;;623207;229;26636;-65
2022/03/04 00:35:46;;;;;;;3.10;2.67;;;2.20;99.80;;;;;;623290;230;26821;-65
2022/03/04 00:38:14;;;;;;;2.92;2.60;;;2.20;99.40;;;;;;623269;229;26604;-65
2022/03/04 00:40:41;;;;;;;2.72;2.30;;;2.10;99.50;;;;;;623268;229;26813;-66
2022/03/04 00:43:09;;;;;;;3.90;2.42;;;2.00;99.70;;;;;;623051;229;26603;-65
2022/03/04 00:45:37;;;;;;;2.60;2.40;;;2.00;99.90;;;;;;622926;230;26617;-65
2022/03/04 00:48:05;;;;;;;2.28;2.17;;;2.10;99.90;;;;;;622967;229;26656;-65
2022/03/04 00:50:32;;;;;;;2.37;2.05;;;2.10;99.90;;;;;;622980;230;26802;-65
2022/03/04 00:53:01;;;;;;;2.37;2.17;;;1.90;99.90;;;;;;622879;230;26608;-65
2022/03/04 00:55:26;;;;;;;4.22;2.35;;;2.10;99.90;;;;;;622901;229;26869;-65
2022/03/04 00:57:54;;;;;;;2.37;2.17;;;2.20;99.90;;;;;;622975;230;26579;-65
2022/03/04 01:00:22;;;;;;;2.70;2.03;;;2.20;99.90;;;;;;622909;231;26817;-65
2022/03/04 01:02:49;;;;;;;2.20;2.00;;;2.30;99.90;;;;;;622918;229;26680;-65
2022/03/04 01:05:16;;;;;;;3.40;2.22;;;2.30;99.30;;;;;;623014;230;26770;-65
2022/03/04 01:07:44;;;;;;;2.85;2.65;;;2.20;99.90;;;;;;622992;229;26603;-65
2022/03/04 01:10:10;;;;;;;2.47;2.28;;;2.20;99.40;;;;;;622985;229;26575;-65
2022/03/04 01:12:38;;;;;;;2.40;2.20;;;2.30;99.90;;;;;;622965;229;26628;-66
2022/03/04 01:15:07;;;;;;;2.50;2.30;;;2.10;99.60;;;;;;622977;229;26607;-66
2022/03/04 01:17:35;;;;;;;2.50;2.12;;;2.10;99.50;;;;;;622972;231;26589;-65
2022/03/04 01:20:02;;;;;;;4.07;2.30;;;1.90;99.90;;;;;;624763;230;26899;-63
2022/03/04 01:22:29;;;;;;;4.75;2.40;;;1.80;99.80;;;;;;624122;230;26541;-65
2022/03/04 01:24:56;;;;;;;3.70;2.33;;;1.90;99.90;;;;;;628633;225;26578;-65
2022/03/04 01:27:24;;;;;;;2.47;2.28;;;1.90;99.90;;;;;;623787;229;26614;-65
2022/03/04 01:29:52;;;;;;;8.38;2.70;;;2.00;99.90;;;;;;623612;229;26564;-65
2022/03/04 01:32:20;;;;;;;3.90;2.50;;;1.80;99.90;;;;;;623564;229;26773;-65
2022/03/04 01:34:47;;;;;;;4.93;2.10;;;1.80;99.90;;;;;;623656;224;26764;-65
2022/03/04 01:37:14;;;;;;;4.37;2.47;;;1.80;99.90;;;;;;623404;229;26580;-65
2022/03/04 01:39:42;;;;;;;7.37;2.45;;;2.00;99.90;;;;;;623232;229;26749;-65
2022/03/04 01:42:10;;;;;;;2.83;2.35;;;2.20;99.70;;;;;;623258;229;26600;-65
2022/03/04 01:44:38;;;;;;;2.78;2.37;;;2.20;99.50;;;;;;623217;229;26625;-65
2022/03/04 01:47:06;;;;;;;2.65;2.30;;;2.20;99.40;;;;;;623282;229;27267;-65
2022/03/04 01:49:33;;;;;;;2.33;2.10;;;2.20;99.40;;;;;;623243;229;26623;-65
2022/03/04 01:52:00;;;;;;;2.47;2.05;;;2.00;99.90;;;;;;623215;229;26832;-65
2022/03/04 01:54:28;;;;;;;2.65;1.95;;;2.00;99.90;;;;;;623123;229;26586;-65
2022/03/04 01:56:55;;;;;;;2.55;2.35;;;2.20;99.60;;;;;;622965;230;26586;-65
2022/03/04 01:59:23;;;;;;;4.30;2.08;;;2.20;99.60;;;;;;623002;229;26837;-65
2022/03/04 02:01:51;;;;;;;2.97;1.95;;;2.30;99.30;;;;;;622953;229;26633;-65
2022/03/04 02:04:18;;;;;;;2.95;2.20;;;2.10;99.40;;;;;;623290;229;26907;-65
2022/03/04 02:06:45;;;;;;;2.62;2.00;;;2.30;99.10;;;;;;623817;229;26543;-65
2022/03/04 02:09:12;;;;;;;3.67;2.10;;;2.30;98.90;;;;;;623166;229;26820;-65
2022/03/04 02:11:43;;;;;;;2.67;2.22;;;2.00;99.20;;;;;;622959;230;26597;-65
2022/03/04 02:14:08;;;;;;;2.75;2.00;;;2.10;99.10;;;;;;622834;229;26570;-65
2022/03/04 02:16:38;;;;;;;5.40;2.53;;;2.30;99.00;;;;;;622986;229;26581;-65
2022/03/04 02:19:06;;;;;;;3.15;2.00;;;2.30;98.90;;;;;;622878;229;26588;-66
2022/03/04 02:21:34;;;;;;;2.55;1.87;;;2.30;98.90;;;;;;622896;229;26574;-65
2022/03/04 02:24:02;;;;;;;2.40;2.20;;;2.20;99.00;;;;;;622912;230;26811;-65
2022/03/04 02:26:29;;;;;;;2.35;2.15;;;2.40;98.90;;;;;;622927;229;26606;-65
2022/03/04 02:28:56;;;;;;;2.30;2.12;;;2.10;99.00;;;;;;623015;230;26814;-65
2022/03/04 02:31:23;;;;;;;2.10;2.00;;;1.90;99.60;;;;;;624594;228;26581;-65
2022/03/04 02:33:50;;;;;;;2.42;1.90;;;1.90;99.90;;;;;;624169;229;26531;-65
2022/03/04 02:36:18;;;;;;;3.87;2.12;;;2.10;99.50;;;;;;623859;229;26574;-65
2022/03/04 02:38:45;;;;;;;2.40;2.20;;;2.10;99.50;;;;;;623809;229;26534;-65
2022/03/04 02:41:13;;;;;;;3.05;1.92;;;2.30;99.40;;;;;;623556;229;26547;-65
2022/03/04 02:43:40;;;;;;;1.98;1.85;;;2.10;99.40;;;;;;623574;229;26826;-65
2022/03/04 02:46:07;;;;;;;3.62;2.35;;;2.20;99.50;;;;;;623578;229;26517;-65
2022/03/04 02:48:34;;;;;;;3.17;2.30;;;2.30;99.30;;;;;;623201;229;26765;-65
2022/03/04 02:51:07;;;;;;;2.20;2.10;;;2.20;99.60;;;;;;623080;229;26596;-65
2022/03/04 02:53:34;;;;;;;2.67;2.47;;;2.20;99.60;;;;;;623659;229;26627;-65
2022/03/04 02:56:01;;;;;;;2.67;2.30;;;2.40;99.40;;;;;;623192;229;26830;-65
2022/03/04 02:58:29;;;;;;;1.90;1.80;;;2.40;99.10;;;;;;623228;229;26635;-65
2022/03/04 03:00:57;;;;;;;2.22;2.05;;;2.20;99.40;;;;;;623261;229;26567;-65
2022/03/04 03:03:24;;;;;;;3.35;2.28;;;2.20;99.40;;;;;;623237;229;26830;-65
2022/03/04 03:05:52;;;;;;;2.15;1.95;;;2.10;99.50;;;;;;623161;229;26580;-65
2022/03/04 03:08:19;;;;;;;2.17;2.08;;;2.20;99.50;;;;;;622977;229;26825;-65
2022/03/04 03:10:47;;;;;;;2.28;2.17;;;2.10;99.60;;;;;;622975;229;26587;-65
2022/03/04 03:13:15;;;;;;;2.40;2.20;;;2.20;99.60;;;;;;622950;229;26622;-65
2022/03/04 03:15:43;;;;;;;2.22;2.03;;;2.20;99.70;;;;;;622952;229;26620;-65
2022/03/04 03:18:10;;;;;;;2.35;2.10;;;2.20;99.70;;;;;;622956;229;26811;-65
2022/03/04 03:20:37;;;;;;;2.17;2.08;;;2.30;99.70;;;;;;622945;229;26586;-65
2022/03/04 03:23:06;;;;;;;2.35;2.10;;;2.40;99.40;;;;;;622917;229;26616;-65
2022/03/04 03:25:34;;;;;;;2.62;2.42;;;2.30;99.40;;;;;;622993;230;26611;-65
2022/03/04 03:28:02;;;;;;;1.83;1.73;;;2.30;99.40;;;;;;622944;229;27250;-65
2022/03/04 03:30:29;;;;;;;2.35;2.15;;;2.30;99.40;;;;;;622922;229;26575;-65
2022/03/04 03:32:56;;;;;;;2.42;2.05;;;2.30;99.30;;;;;;622927;230;26832;-66
2022/03/04 03:35:24;;;;;;;2.47;2.10;;;2.50;99.20;;;;;;622974;229;26588;-65
2022/03/04 03:37:52;;;;;;;2.58;2.37;;;2.60;98.90;;;;;;622968;229;26596;-65
2022/03/04 03:40:20;;;;;;;2.80;2.20;;;2.50;98.60;;;;;;623019;230;26574;-65
2022/03/04 03:42:47;;;;;;;2.20;2.00;;;2.60;98.60;;;;;;624463;228;26611;-65
2022/03/04 03:45:15;;;;;;;4.03;2.30;;;2.60;98.70;;;;;;624155;229;27155;-65
2022/03/04 03:47:42;;;;;;;2.47;2.28;;;2.80;98.40;;;;;;623758;229;26605;-65
2022/03/04 03:50:09;;;;;;;2.65;2.45;;;2.70;98.20;;;;;;623671;224;26590;-65
2022/03/04 03:52:37;;;;;;;3.00;2.60;;;2.60;98.50;;;;;;623379;229;26544;-65
2022/03/04 03:55:07;;;;;;;2.65;2.45;;;2.70;98.30;;;;;;623385;229;26508;-65
2022/03/04 03:57:33;;;;;;;2.15;1.92;;;2.70;98.40;;;;;;623536;229;26816;-65
2022/03/04 04:00:01;;;;;;;2.37;2.20;;;2.80;98.40;;;;;;623412;229;26496;-65
2022/03/04 04:02:28;;;;;;;2.25;2.03;;;2.80;97.90;;;;;;623196;229;26863;-65
2022/03/04 04:04:55;;;;;;;2.22;2.03;;;2.80;97.80;;;;;;623241;230;26577;-65
2022/03/04 04:07:22;;;;;;;2.50;2.28;;;2.90;98.10;;;;;;623227;231;26596;-65
2022/03/04 04:09:50;;;;;;;2.90;2.35;;;2.80;97.80;;;;;;623156;229;26605;-65
2022/03/04 04:12:18;;;;;;;2.35;2.15;;;2.80;97.80;;;;;;623005;229;26581;-65
2022/03/04 04:14:45;;;;;;;2.40;2.20;;;2.80;97.80;;;;;;623107;229;26788;-65
2022/03/04 04:17:15;;;;;;;2.35;2.15;;;2.80;98.20;;;;;;623126;231;26638;-65
2022/03/04 04:19:42;;;;;;;2.45;2.25;;;2.80;98.20;;;;;;623031;229;26579;-65
2022/03/04 04:22:09;;;;;;;2.30;2.10;;;2.80;98.00;;;;;;622965;230;26595;-66
2022/03/04 04:24:37;;;;;;;2.47;2.20;;;2.80;97.90;;;;;;617437;231;26871;-65
2022/03/04 04:27:04;;;;;;;2.60;2.40;;;2.80;98.00;;;;;;622959;229;26579;-65
2022/03/04 04:29:31;;;;;;;2.60;2.40;;;2.90;97.90;;;;;;622962;229;26587;-65
2022/03/04 04:31:58;;;;;;;2.80;2.30;;;2.80;97.90;;;;;;622950;229;26831;-65
2022/03/04 04:34:26;;;;;;;2.45;2.15;;;2.90;97.70;;;;;;623020;229;26570;-66
2022/03/04 04:36:53;;;;;;;2.35;2.17;;;3.00;97.70;;;;;;622981;231;26814;-65
2022/03/04 04:39:20;;;;;;;2.83;2.50;;;3.00;97.50;;;;;;623020;231;26826;-65
2022/03/04 04:41:48;;;;;;;2.70;1.98;;;3.00;97.20;;;;;;622954;229;26642;-65
2022/03/04 04:44:16;;;;;;;2.75;2.28;;;2.90;97.30;;;;;;622990;229;26575;-65
2022/03/04 04:46:43;;;;;;;2.80;2.15;;;2.90;97.30;;;;;;622946;230;26598;-65
2022/03/04 04:49:11;;;;;;;2.15;2.00;;;2.90;97.30;;;;;;623029;229;26591;-65
2022/03/04 04:51:38;;;;;;;2.17;2.00;;;3.00;97.30;;;;;;622918;224;26942;-65
2022/03/04 04:54:05;;;;;;;2.33;2.12;;;3.10;97.10;;;;;;624321;228;26581;-65
2022/03/04 04:56:32;;;;;;;2.62;2.08;;;3.10;97.10;;;;;;624259;229;26764;-65
2022/03/04 04:59:00;;;;;;;2.22;2.03;;;3.10;96.80;;;;;;623940;229;26609;-65
2022/03/04 05:01:28;;;;;;;2.40;2.20;;;2.70;97.70;;;;;;623857;229;26586;-65
2022/03/04 05:03:55;;;;;;;3.08;2.05;;;2.70;98.00;;;;;;623614;224;26540;-65
2022/03/04 05:06:22;;;;;;;2.47;2.12;;;2.50;98.30;;;;;;623625;231;26527;-65
2022/03/04 05:08:49;;;;;;;2.67;2.30;;;2.40;98.60;;;;;;623561;229;26804;-65
2022/03/04 05:11:17;;;;;;;3.03;2.30;;;2.40;98.70;;;;;;623464;229;26528;-65
2022/03/04 05:13:44;;;;;;;2.42;2.22;;;2.10;99.00;;;;;;623308;229;26638;-66
2022/03/04 05:16:13;;;;;;;2.62;2.35;;;2.20;99.40;;;;;;623191;229;26539;-65
2022/03/04 05:18:40;;;;;;;2.03;1.90;;;2.20;99.40;;;;;;623136;229;26600;-65
2022/03/04 05:21:07;;;;;;;5.62;2.60;;;2.10;99.30;;;;;;623184;231;26816;-65
2022/03/04 05:26:07;;;;;;;2.40;2.20;;;2.30;99.30;;;;;;623218;229;26601;-65
2022/03/04 05:28:35;;;;;;;2.15;1.95;;;1.90;99.90;;;;;;623236;224;26809;-65
2022/03/04 05:31:02;;;;;;;2.35;1.90;;;1.80;99.90;;;;;;622963;229;26571;-65
2022/03/04 05:33:29;;;;;;;2.37;2.17;;;1.90;99.90;;;;;;622900;229;26825;-66
2022/03/04 05:35:57;;;;;;;2.40;2.20;;;2.10;99.90;;;;;;622952;229;26589;-65
2022/03/04 05:38:25;;;;;;;2.30;2.10;;;2.10;99.90;;;;;;622964;229;26587;-65
2022/03/04 05:40:52;;;;;;;2.25;2.05;;;2.10;99.90;;;;;;623010;229;26591;-65
2022/03/04 05:43:19;;;;;;;2.35;2.15;;;2.10;99.90;;;;;;622924;229;26607;-65
2022/03/04 05:45:47;;;;;;;2.30;2.10;;;2.10;99.90;;;;;;624556;229;26811;-65
2022/03/04 05:48:14;;;;;;;2.53;2.33;;;2.40;99.90;;;;;;626293;229;26537;-65
2022/03/04 05:50:41;;;;;;;2.70;2.28;;;2.50;99.90;;;;;;626278;229;27186;-65
2022/03/04 05:53:09;;;;;;;2.37;2.17;;;2.30;99.90;;;;;;626236;229;26590;-65
2022/03/04 05:55:37;;;;;;;2.33;2.10;;;2.30;99.90;;;;;;626272;229;26536;-66
2022/03/04 05:58:05;;;;;;;2.37;2.17;;;2.30;99.90;;;;;;626255;229;26630;-65
2022/03/04 06:00:31;;;;;;;4.07;2.40;;;2.30;99.90;;;;;;626203;229;26555;-66
2022/03/04 06:02:59;;;;;;;2.37;2.17;;;2.60;99.70;;;;;;626198;229;26912;-66
2022/03/04 06:05:26;;;;;;;2.30;2.10;;;2.50;99.60;;;;;;627493;227;27187;-66
2022/03/04 06:07:54;;;;;;;2.33;2.12;;;2.40;99.70;;;;;;627588;228;26511;-66
2022/03/04 06:10:22;;;;;;;2.40;2.20;;;2.20;99.90;;;;;;627192;229;26548;-66
2022/03/04 06:12:49;;;;;;;2.58;2.22;;;2.20;99.90;;;;;;627080;228;26584;-66
2022/03/04 06:15:17;;;;;;;2.42;2.17;;;2.30;99.90;;;;;;626887;229;26617;-67
2022/03/04 06:17:47;;;;;;;2.22;2.10;;;2.20;99.90;;;;;;626906;229;26820;-65
2022/03/04 06:20:16;;;;;;;2.65;2.30;;;2.30;99.90;;;;;;626825;229;26623;-65
2022/03/04 06:22:43;;;;;;;4.00;2.30;;;2.20;99.90;;;;;;626661;229;26595;-66
2022/03/04 06:25:10;;;;;;;2.67;2.03;;;2.30;99.90;;;;;;626481;228;26755;-66
2022/03/04 06:27:38;;;;;;;2.20;2.00;;;2.40;99.90;;;;;;626526;228;26540;-65
2022/03/04 06:30:05;;;;;;;2.20;2.00;;;2.50;99.90;;;;;;626502;228;26539;-65
2022/03/04 06:32:33;;;;;;;3.15;2.42;;;2.60;99.70;;;;;;626571;229;26537;-65
2022/03/04 06:35:00;;;;;;;3.40;2.08;;;2.40;99.90;;;;;;626541;229;26542;-66
2022/03/04 06:37:27;;;;;;;2.22;2.03;;;2.50;99.90;;;;;;626591;229;26792;-65
2022/03/04 06:39:54;;;;;;;2.92;2.08;;;2.60;99.80;;;;;;626465;229;26539;-66
2022/03/04 06:42:21;;;;;;;3.30;2.25;;;2.50;99.90;;;;;;626192;229;26856;-66
2022/03/04 06:44:49;;;;;;;2.37;2.05;;;2.50;99.90;;;;;;626167;229;26548;-66
2022/03/04 06:47:17;;;;;;;2.78;2.40;;;2.50;99.90;;;;;;626217;229;26556;-66
2022/03/04 06:49:44;;;;;;;2.83;2.17;;;2.30;99.90;;;;;;626288;229;26544;-65
2022/03/04 06:52:11;;;;;;;3.92;2.30;;;2.40;99.90;;;;;;626222;229;26797;-66
2022/03/04 06:54:39;;;;;;;2.92;2.08;;;2.40;99.90;;;;;;626508;229;26567;-65
2022/03/04 06:57:05;;;;;;;2.60;2.03;;;2.40;99.90;;;;;;626657;229;26507;-66
2022/03/04 06:59:33;;;;;;;2.22;1.90;;;2.30;99.90;;;;;;626644;229;26513;-65
2022/03/04 07:02:00;;;;;;;2.58;2.20;;;2.40;99.90;;;;;;626624;229;26794;-66
2022/03/04 07:04:28;;;;;;;2.42;2.22;;;2.20;99.90;;;;;;626435;229;26584;-65
2022/03/04 07:06:55;;;;;;;2.20;2.00;;;2.40;99.90;;;;;;626267;229;26785;-65
2022/03/04 07:09:22;;;;;;;2.83;2.10;;;2.60;99.90;;;;;;626227;229;26552;-65
2022/03/04 07:11:50;;;;;;;2.17;2.00;;;2.40;99.90;;;;;;626171;229;27417;-70
2022/03/04 07:14:17;;;;;;;2.03;1.87;;;2.30;99.90;;;;;;626211;229;26544;-70
2022/03/04 07:16:44;;;;;;;2.28;2.08;;;2.20;99.90;;;;;;627320;227;26519;-71
2022/03/04 07:19:12;;;;;;;2.58;2.20;;;2.50;99.90;;;;;;627524;229;26544;-70
2022/03/04 07:21:40;;;;;;;3.37;2.10;;;2.60;99.90;;;;;;628596;223;26560;-71
2022/03/04 07:24:07;;;;;;;2.35;1.73;;;2.60;99.90;;;;;;627433;229;26795;-70
2022/03/04 07:26:34;;;;;;;2.12;1.92;;;2.70;99.90;;;;;;626870;228;26508;-70
2022/03/04 07:29:02;;;;;;;2.47;1.90;;;2.50;99.90;;;;;;626793;228;26826;-70
2022/03/04 07:31:29;;;;;;;2.00;1.80;;;2.40;99.90;;;;;;626736;229;26612;-72
2022/03/04 07:33:56;;;;;;;2.20;1.90;;;2.70;99.90;;;;;;626691;229;26583;-70
2022/03/04 07:36:24;;;;;;;2.30;2.10;;;2.80;99.70;;;;;;626547;224;26593;-70
2022/03/04 07:38:55;;;;;;;2.03;1.92;;;2.80;99.70;;;;;;626474;228;26698;-71
2022/03/04 07:41:18;;;;;;;2.17;1.98;;;3.00;99.30;;;;;;626290;229;26527;-72
2022/03/04 07:43:45;;;;;;;2.15;1.95;;;3.10;99.40;;;;;;626522;223;26820;-72
2022/03/04 07:46:13;;;;;;;2.00;1.90;;;3.00;99.10;;;;;;626460;228;26537;-71
2022/03/04 07:48:40;;;;;;;1.95;1.85;;;3.00;98.90;;;;;;626496;229;26777;-71
2022/03/04 07:51:08;;;;;;;2.85;1.95;;;2.90;99.30;;;;;;626510;224;26568;-71
2022/03/04 07:53:36;;;;;;;2.17;1.90;;;2.80;99.60;;;;;;626282;229;26524;-70
2022/03/04 07:56:03;;;;;;;2.58;2.15;;;2.80;99.60;;;;;;626210;229;26560;-70
2022/03/04 07:58:30;;;;;;;3.25;1.92;;;2.90;99.60;;;;;;626247;224;26544;-70
2022/03/04 08:00:58;;;;;;;2.62;2.30;;;2.90;99.30;;;;;;626224;230;26547;-69
2022/03/04 08:03:26;;;;;;;2.22;2.03;;;3.00;98.70;;;;;;626162;229;26555;-71
2022/03/04 08:05:54;;;;;;;2.40;2.20;;;3.10;98.70;;;;;;626247;229;26540;-68
2022/03/04 08:08:21;;;;;;;17.27;2.20;;;3.10;98.80;;;;;;626258;229;26764;-68
2022/03/04 08:10:48;;;;;;;4.32;2.00;;;3.30;98.40;;;;;;626259;229;26524;-68
2022/03/04 08:13:16;;;;;;;2.97;1.70;;;3.20;98.20;;;;;;626148;229;26829;-69
2022/03/04 08:15:43;;;;;;;6.85;2.25;;;3.40;98.10;;;;;;629694;225;26542;-69
2022/03/04 08:18:11;;;;;;;2.00;1.90;;;3.90;96.30;;;;;;631174;225;26548;-70
2022/03/04 08:20:39;;;;;;;3.72;1.95;;;3.80;96.30;;;;;;631297;225;26594;-69
2022/03/04 08:23:07;;;;;;;4.55;1.90;;;3.80;96.00;;;;;;624698;226;26594;-70
2022/03/04 08:25:34;;;;;;;3.15;2.37;;;3.80;96.10;;;;;;626989;224;26571;-69
2022/03/04 08:28:01;;;;;;;4.53;2.72;;;4.00;96.10;;;;;;628652;224;26850;-69
2022/03/04 08:30:29;;;;;;;3.15;2.00;;;4.10;95.90;;;;;;627067;226;26594;-69
2022/03/04 08:32:57;;;;;;;4.47;2.55;;;4.10;95.20;;;;;;624412;229;26557;-69
2022/03/04 08:35:25;;;;;;;6.60;2.33;;;4.10;95.20;;;;;;627772;226;26573;-69
2022/03/04 08:37:52;;;;;;;5.45;2.62;;;4.30;94.70;;;;;;626533;226;26586;-69
2022/03/04 08:40:19;;;;;;;2.30;1.95;;;4.00;94.30;;;;;;626424;226;26959;-69
2022/03/04 08:42:46;;;;;;;4.12;1.90;;;4.20;94.60;;;;;;626807;226;26574;-69
2022/03/04 08:45:13;;;;;;;3.80;2.35;;;4.20;94.00;;;;;;628625;225;26808;-71
2022/03/04 08:47:43;;;;;;;6.60;2.20;;;4.10;93.40;;;;;;624579;226;26599;-70
2022/03/04 08:50:09;;;;;;;2.30;2.10;;;4.00;93.70;;;;;;624520;229;26530;-70
2022/03/04 08:52:36;;;;;;;7.57;2.00;;;4.00;93.70;;;;;;633415;226;26566;-70
2022/03/04 08:55:07;;;;;;;3.17;2.00;;;4.30;92.90;;;;;;626700;225;26601;-71
2022/03/04 08:57:32;;;;;;;4.80;2.10;;;4.30;92.90;;;;;;631704;225;26593;-70
2022/03/04 09:00:00;;;;;;;4.05;2.40;;;4.20;92.90;;;;;;630981;226;26778;-70
2022/03/04 09:02:28;;;;;;;2.30;2.10;;;4.00;93.50;;;;;;626523;226;26620;-70
2022/03/04 09:04:56;;;;;;;3.70;2.47;;;4.10;92.70;;;;;;630524;227;26591;-70
2022/03/04 09:07:23;;;;;;;4.15;2.30;;;4.10;92.70;;;;;;620799;231;26641;-71
2022/03/04 09:09:50;;;;;;;3.97;2.30;;;4.20;92.60;;;;;;632526;225;26532;-72
2022/03/04 09:12:19;;;;;;;4.78;2.40;;;4.50;91.70;;;;;;626757;225;26820;-70
2022/03/04 09:14:45;;;;;;;5.20;2.15;;;4.50;91.70;;;;;;623279;229;26843;-71
2022/03/04 09:17:13;;;;;;;2.75;2.30;;;4.60;91.60;;;;;;625197;230;26555;-70
2022/03/04 09:19:41;;;;;;;5.32;2.40;;;4.50;91.60;;;;;;624619;230;26552;-70
2022/03/04 09:22:08;;;;;;;4.75;2.40;;;4.80;91.40;;;;;;632381;226;26785;-69
2022/03/04 09:24:35;;;;;;;6.57;2.53;;;4.80;90.70;;;;;;627336;226;26513;-70
2022/03/04 09:27:03;;;;;;;4.32;2.20;;;5.00;90.50;;;;;;625772;226;27188;-70
2022/03/04 09:29:30;;;;;;;3.97;2.20;;;4.90;90.60;;;;;;630157;226;26595;-71
2022/03/04 09:31:57;;;;;;;6.30;2.40;;;5.00;90.70;;;;;;622929;224;26607;-70
2022/03/04 09:34:25;;;;;;;3.50;2.37;;;4.80;90.80;;;;;;625575;229;26588;-70
2022/03/04 09:36:52;;;;;;;4.37;2.10;;;4.80;90.80;;;;;;623398;226;26633;-71
2022/03/04 09:39:19;;;;;;;3.87;2.40;;;4.60;90.50;;;;;;626852;227;26607;-70
2022/03/04 09:41:47;;;;;;;3.35;2.20;;;4.80;91.10;;;;;;625920;228;26823;-71
2022/03/04 09:44:14;;;;;;;2.78;2.42;;;5.00;90.80;;;;;;626406;229;26520;-71
2022/03/04 09:46:41;;;;;;;2.83;2.22;;;5.10;90.40;;;;;;624136;229;26817;-70
2022/03/04 09:49:09;;;;;;;2.25;1.92;;;5.10;90.00;;;;;;626971;226;26532;-70
2022/03/04 09:51:37;;;;;;;2.65;2.28;;;5.10;89.30;;;;;;630193;226;26613;-70
2022/03/04 09:54:04;;;;;;;2.45;2.25;;;5.00;89.10;;;;;;625685;229;26813;-70
2022/03/04 09:56:31;;;;;;;2.95;2.42;;;5.30;87.80;;;;;;624131;225;26531;-70
2022/03/04 09:58:58;;;;;;;2.75;2.15;;;5.40;87.70;;;;;;626520;229;26868;-70
2022/03/04 10:01:26;;;;;;;5.22;2.87;;;5.60;87.60;;;;;;626564;229;26539;-72
2022/03/04 10:03:53;;;;;;;2.62;2.42;;;5.60;86.30;;;;;;626494;229;26563;-70
2022/03/04 10:06:21;;;;;;;4.60;2.40;;;5.40;86.10;;;;;;629848;225;26602;-70
2022/03/04 10:08:50;;;;;;;32.67;7.82;;;5.40;85.50;;;;;;633572;226;26591;-73
2022/03/04 10:11:25;;;;;;;67.05;14.70;;;5.40;85.40;;;;;;624244;229;26832;-72
2022/03/04 10:13:53;;;;;;;1923.78;130.50;;;5.80;82.50;;;;;;624685;229;26614;-73
2022/03/04 10:16:24;;;;;;;1999.90;301.35;;;5.80;82.40;;;;;;631949;227;26578;-72
2022/03/04 10:19:10;;;;;;;1999.90;343.33;;;6.00;80.60;;;;;;624983;227;26545;-72
2022/03/04 10:21:52;;;;;;;1102.40;68.87;;;6.00;80.50;;;;;;625757;229;26585;-68
2022/03/04 10:24:22;;;;;;;66.07;15.95;;;5.90;79.80;;;;;;632317;226;26561;-70
2022/03/04 10:27:04;;;;;;;39.17;14.15;;;5.80;79.40;;;;;;633577;226;26551;-69
2022/03/04 10:29:32;;;;;;;71.68;19.15;;;5.80;80.10;;;;;;627565;225;26595;-69
2022/03/04 10:32:24;;;;;;;62.25;17.48;;;5.80;78.80;;;;;;630668;225;26565;-69
2022/03/04 10:34:52;;;;;;;55.85;18.50;;;5.80;78.90;;;;;;625031;226;26573;-69
2022/03/04 10:37:43;;;;;;;48.85;14.50;;;5.70;75.80;;;;;;636669;225;26556;-69
2022/03/04 10:40:13;;;;;;;29.23;10.25;;;5.70;75.80;;;;;;637697;225;26754;-69
2022/03/04 10:42:42;;;;;;;27.50;11.77;;;5.90;75.90;;;;;;638400;225;26528;-69
2022/03/04 10:45:10;;;;;;;31.55;11.20;;;6.10;74.30;;;;;;634366;225;26516;-69
2022/03/04 10:47:41;;;;;;;24.33;9.95;;;5.90;74.70;;;;;;630409;225;26504;-69
2022/03/04 10:50:08;;;;;;;24.73;9.68;;;5.90;74.70;;;;;;638085;225;26781;-70
2022/03/04 10:52:36;;;;;;;25.48;9.65;;;6.00;74.90;;;;;;626743;223;26652;-70
2022/03/04 10:55:05;;;;;;;26.12;9.48;;;6.00;74.50;;;;;;627976;226;26822;-69
2022/03/04 10:57:31;;;;;;;17.73;7.12;;;6.00;75.30;;;;;;636169;226;26575;-68
2022/03/04 10:59:58;;;;;;;16.48;6.60;;;6.00;76.40;;;;;;636852;225;26829;-69
2022/03/04 11:02:38;;;;;;;10.98;5.07;;;6.10;75.70;;;;;;629079;225;26648;-69
2022/03/04 11:05:05;;;;;;;8.32;4.55;;;6.30;75.10;;;;;;632363;226;26548;-68
2022/03/04 11:07:34;;;;;;;7.55;4.62;;;6.20;75.00;;;;;;623519;231;26810;-68
2022/03/04 11:10:01;;;;;;;8.95;4.28;;;6.30;74.40;;;;;;630921;226;26559;-68
2022/03/04 11:12:29;;;;;;;5.68;4.07;;;6.40;73.90;;;;;;635544;226;26569;-69
2022/03/04 11:14:56;;;;;;;8.52;4.20;;;6.30;73.80;;;;;;623860;229;26821;-69
2022/03/04 11:17:23;;;;;;;5.03;4.35;;;6.10;74.90;;;;;;629907;226;26528;-69
2022/03/04 11:19:50;;;;;;;6.85;4.15;;;6.30;74.50;;;;;;627696;226;26814;-69
2022/03/04 11:22:18;;;;;;;7.50;4.28;;;6.30;74.20;;;;;;622775;229;26580;-70
2022/03/04 11:24:46;;;;;;;6.55;3.97;;;6.40;73.50;;;;;;623194;229;26808;-69
2022/03/04 11:27:13;;;;;;;7.32;3.80;;;6.40;72.80;;;;;;623095;229;26808;-69
2022/03/04 11:29:40;;;;;;;6.12;3.87;;;6.20;74.10;;;;;;622847;229;26592;-69
2022/03/04 11:32:08;;;;;;;5.72;4.05;;;6.30;73.00;;;;;;622923;230;27130;-69
2022/03/04 11:34:36;;;;;;;5.03;3.75;;;6.40;71.20;;;;;;622962;229;26900;-69
2022/03/04 11:37:03;;;;;;;4.62;3.80;;;6.30;73.00;;;;;;622797;229;26599;-69
2022/03/04 11:39:31;;;;;;;4.68;3.72;;;6.10;71.10;;;;;;622959;231;26598;-69
2022/03/04 11:42:07;;;;;;;4.80;3.72;;;6.00;70.40;;;;;;622886;230;26626;-69
2022/03/04 11:44:34;;;;;;;4.25;3.60;;;6.00;70.40;;;;;;622916;231;26594;-70
2022/03/04 11:47:04;;;;;;;5.07;3.65;;;6.20;71.30;;;;;;622044;228;26826;-70
2022/03/04 11:49:32;;;;;;;3.95;3.62;;;6.60;71.00;;;;;;622921;229;27211;-70
2022/03/04 11:52:24;;;;;;;5.15;3.92;;;6.50;70.20;;;;;;622729;229;26619;-70
2022/03/04 11:55:07;;;;;;;4.30;3.70;;;6.90;70.90;;;;;;622168;230;26595;-70
2022/03/04 11:57:34;;;;;;;3.62;3.33;;;7.00;68.70;;;;;;622350;230;26601;-70
2022/03/04 12:00:23;;;;;;;3.50;3.28;;;6.80;68.80;;;;;;623034;229;27218;-69
2022/03/04 12:02:52;;;;;;;3.28;3.08;;;7.10;68.80;;;;;;623748;228;26897;-70
2022/03/04 12:05:22;;;;;;;6.10;3.67;;;7.00;68.00;;;;;;624254;229;26824;-70
2022/03/04 12:07:50;;;;;;;4.53;3.45;;;7.10;68.30;;;;;;624018;228;26779;-70
2022/03/04 12:10:17;;;;;;;4.55;3.55;;;7.10;67.70;;;;;;623823;230;26949;-70
2022/03/04 12:12:56;;;;;;;4.62;3.45;;;6.90;68.20;;;;;;623522;229;26570;-70
2022/03/04 12:15:39;;;;;;;5.18;3.37;;;6.90;69.70;;;;;;623543;229;26528;-70
2022/03/04 12:18:07;;;;;;;4.37;3.83;;;6.90;69.50;;;;;;623277;230;27089;-70
2022/03/04 12:20:58;;;;;;;3.50;3.20;;;6.70;70.20;;;;;;624737;229;26635;-70
2022/03/04 12:23:28;;;;;;;3.47;3.17;;;6.70;70.40;;;;;;624499;229;26601;-70
2022/03/04 12:26:12;;;;;;;3.22;3.03;;;6.70;69.80;;;;;;626339;229;26532;-70
2022/03/04 12:28:41;;;;;;;3.58;3.30;;;7.00;69.40;;;;;;623168;230;26659;-70
2022/03/04 12:31:17;;;;;;;4.20;3.17;;;7.00;69.40;;;;;;623138;229;26515;-70
2022/03/04 12:33:45;;;;;;;3.35;2.97;;;6.80;68.40;;;;;;623247;224;26866;-70
2022/03/04 12:36:13;;;;;;;3.65;3.33;;;6.90;68.50;;;;;;623240;229;26801;-69
2022/03/04 12:38:44;;;;;;;3.60;3.30;;;7.20;66.90;;;;;;623039;229;26547;-69
2022/03/04 12:41:16;;;;;;;3.00;2.62;;;7.20;66.90;;;;;;622915;229;26621;-69
2022/03/04 12:43:44;;;;;;;3.65;3.00;;;7.10;66.80;;;;;;622933;226;26786;-69
2022/03/04 12:46:11;;;;;;;3.05;2.60;;;6.90;65.60;;;;;;622954;229;26802;-70
2022/03/04 12:48:39;;;;;;;3.60;3.30;;;7.40;65.60;;;;;;622917;229;26599;-69
2022/03/04 12:51:18;;;;;;;3.00;2.80;;;7.00;65.00;;;;;;622909;229;26572;-69
2022/03/04 12:53:45;;;;;;;3.22;2.92;;;7.00;65.00;;;;;;622926;229;26590;-69
2022/03/04 12:56:13;;;;;;;3.10;2.90;;;6.70;65.10;;;;;;622945;224;26583;-69
2022/03/04 12:58:44;;;;;;;3.12;2.85;;;6.80;65.10;;;;;;622980;229;26595;-69
2022/03/04 13:01:12;;;;;;;3.40;3.10;;;6.80;64.90;;;;;;622808;229;26813;-69
2022/03/04 13:03:39;;;;;;;2.83;2.62;;;6.80;65.60;;;;;;622897;229;26631;-69